Terminal Aerodrome Forecast
Issued by NWS

Home | Current Version | Previous Version | Text Only | Print | Product List | Glossary On
Versions: 1 2 3 4 5 6 7 8 9 10 11 12
000
FTUS45 KRIW 271700
TAFLND
TAF
KLND 271725Z 2718/2818 11005KT 5SM -SHRA SCT020 OVC040
     FM272100 VRB06KT P6SM VCSH SCT035 BKN045
      TEMPO 2721/2723 -SHRA
     FM280100 VRB05KT P6SM VCSH SCT040 BKN060
     FM280300 VRB05KT P6SM SCT050 BKN080
     FM280700 VRB05KT P6SM SCT090
     FM281700 05005KT P6SM FEW090=

USA.gov is the U.S. government's official web portal to all federal, state and local government web resources and services.